Time;durP1;ratioP1;P1;durP2;ratioP2;P2;SDS_P1;SDS_P2;PMS_P1;PMS_P2;Temp;Humidity;BMP_temperature;BMP_pressure;BME280_temperature;BME280_humidity;BME280_pressure;Samples;Min_cycle;Max_cycle;Signal;HPM_P1;HPM_P2
2023/10/30 00:01:37;;;;;;;19.55;2.10;;;;;;;;;;5095950;28;20450;-76
2023/10/30 00:04:05;;;;;;;18.23;2.55;;;;;;;;;;5080884;28;20472;-76
2023/10/30 00:06:32;;;;;;;18.30;1.80;;;;;;;;;;5099186;28;21006;-76
2023/10/30 00:09:00;;;;;;;17.40;2.15;;;;;;;;;;5095962;28;20944;-76
2023/10/30 00:11:27;;;;;;;18.45;2.90;;;;;;;;;;5095488;28;20420;-75
2023/10/30 00:13:54;;;;;;;18.00;2.40;;;;;;;;;;5106203;28;20419;-77
2023/10/30 00:16:21;;;;;;;20.40;1.90;;;;;;;;;;5105772;28;20420;-75
2023/10/30 00:18:48;;;;;;;16.60;1.60;;;;;;;;;;5097693;28;20762;-77
2023/10/30 00:21:15;;;;;;;16.90;1.70;;;;;;;;;;5098154;28;20430;-76
2023/10/30 00:23:42;;;;;;;19.63;1.60;;;;;;;;;;5098334;28;20404;-75
2023/10/30 00:26:10;;;;;;;18.02;2.00;;;;;;;;;;5081809;28;20463;-77
2023/10/30 00:28:39;;;;;;;20.98;2.47;;;;;;;;;;5082949;28;20984;-76
2023/10/30 00:31:06;;;;;;;19.15;2.20;;;;;;;;;;5104016;28;20758;-76
2023/10/30 00:33:33;;;;;;;16.90;1.50;;;;;;;;;;5093073;28;20408;-75
2023/10/30 00:35:59;;;;;;;20.63;2.50;;;;;;;;;;5103966;28;20404;-76
2023/10/30 00:38:26;;;;;;;17.05;1.60;;;;;;;;;;5092031;28;21392;-75
2023/10/30 00:40:53;;;;;;;18.52;2.40;;;;;;;;;;5102928;28;20463;-76
2023/10/30 00:43:21;;;;;;;17.20;1.67;;;;;;;;;;5098468;28;20471;-76
2023/10/30 00:45:48;;;;;;;19.15;1.88;;;;;;;;;;5100979;28;20464;-76
2023/10/30 00:48:15;;;;;;;19.50;1.90;;;;;;;;;;5109223;28;20430;-76
2023/10/30 00:50:41;;;;;;;17.70;1.90;;;;;;;;;;5100043;28;20408;-75
2023/10/30 00:53:08;;;;;;;18.15;2.08;;;;;;;;;;5091262;28;20432;-77
2023/10/30 00:55:35;;;;;;;19.33;1.88;;;;;;;;;;5098592;28;20450;-76
2023/10/30 00:58:04;;;;;;;17.00;1.80;;;;;;;;;;5103294;28;20412;-75
2023/10/30 01:00:32;;;;;;;21.45;2.20;;;;;;;;;;5103244;28;20434;-76
2023/10/30 01:02:59;;;;;;;16.50;1.70;;;;;;;;;;5100709;28;20406;-77
2023/10/30 01:05:26;;;;;;;22.23;2.10;;;;;;;;;;5098362;28;20404;-75
2023/10/30 01:07:53;;;;;;;16.77;1.80;;;;;;;;;;5102410;28;20406;-75
2023/10/30 01:10:20;;;;;;;19.13;1.75;;;;;;;;;;5088053;28;20453;-76
2023/10/30 01:12:47;;;;;;;16.88;1.88;;;;;;;;;;5084883;28;20402;-76
2023/10/30 01:15:13;;;;;;;18.27;2.30;;;;;;;;;;5099875;28;20417;-75
2023/10/30 01:17:41;;;;;;;16.80;1.70;;;;;;;;;;5099874;28;20422;-74
2023/10/30 01:20:08;;;;;;;19.55;2.08;;;;;;;;;;5103435;28;20404;-76
2023/10/30 01:22:35;;;;;;;18.55;1.80;;;;;;;;;;5099671;28;20400;-74
2023/10/30 01:25:03;;;;;;;17.70;1.70;;;;;;;;;;5092105;28;20500;-75
2023/10/30 01:27:30;;;;;;;17.80;2.00;;;;;;;;;;5101070;28;20498;-76
2023/10/30 01:29:56;;;;;;;17.25;2.50;;;;;;;;;;5092809;28;20410;-76
2023/10/30 01:32:23;;;;;;;19.13;2.30;;;;;;;;;;5098470;28;20438;-76
2023/10/30 01:34:51;;;;;;;18.98;2.00;;;;;;;;;;5099811;28;20950;-75
2023/10/30 01:37:20;;;;;;;20.73;2.30;;;;;;;;;;5098777;28;20497;-75
2023/10/30 01:39:47;;;;;;;17.38;1.83;;;;;;;;;;5102226;28;20463;-75
2023/10/30 01:42:14;;;;;;;18.70;2.20;;;;;;;;;;5097256;28;20476;-75
2023/10/30 01:44:52;;;;;;;17.00;1.70;;;;;;;;;;5101320;28;20438;-76
2023/10/30 01:47:18;;;;;;;20.23;2.05;;;;;;;;;;5101637;28;20447;-76
2023/10/30 01:49:45;;;;;;;17.45;1.52;;;;;;;;;;5093718;28;20410;-76
2023/10/30 01:52:15;;;;;;;23.60;2.20;;;;;;;;;;5083960;28;20438;-77
2023/10/30 01:54:42;;;;;;;15.90;1.50;;;;;;;;;;5116815;27;20403;-75
2023/10/30 01:57:09;;;;;;;17.70;1.80;;;;;;;;;;5102853;28;20779;-75
2023/10/30 01:59:35;;;;;;;17.17;1.60;;;;;;;;;;5103486;28;20964;-76
2023/10/30 02:02:02;;;;;;;20.77;1.90;;;;;;;;;;5097810;28;20412;-75
2023/10/30 02:04:28;;;;;;;17.80;2.10;;;;;;;;;;5099925;28;20410;-75
2023/10/30 02:06:56;;;;;;;15.63;2.03;;;;;;;;;;5100680;28;20409;-74
2023/10/30 02:09:24;;;;;;;21.17;1.83;;;;;;;;;;5106682;28;20468;-75
2023/10/30 02:11:50;;;;;;;16.80;1.58;;;;;;;;;;5084518;28;20886;-75
2023/10/30 02:14:18;;;;;;;20.53;2.60;;;;;;;;;;5104071;28;20764;-76
2023/10/30 02:16:45;;;;;;;17.10;1.95;;;;;;;;;;5102274;28;20414;-76
2023/10/30 02:19:15;;;;;;;16.55;1.75;;;;;;;;;;5103622;28;21038;-77
2023/10/30 02:21:43;;;;;;;17.27;1.80;;;;;;;;;;5107445;28;20412;-76
2023/10/30 02:24:10;;;;;;;18.63;2.10;;;;;;;;;;5106992;28;20404;-76
2023/10/30 02:26:38;;;;;;;20.87;1.83;;;;;;;;;;5103393;28;20405;-76
2023/10/30 02:29:05;;;;;;;21.15;2.00;;;;;;;;;;5100533;28;21168;-74
2023/10/30 02:31:32;;;;;;;19.73;2.53;;;;;;;;;;5100454;28;20872;-74
2023/10/30 02:33:59;;;;;;;19.00;2.00;;;;;;;;;;5099442;28;20432;-76
2023/10/30 02:36:26;;;;;;;17.70;2.05;;;;;;;;;;5097366;28;20434;-75
2023/10/30 02:38:53;;;;;;;17.55;1.85;;;;;;;;;;5100701;28;20576;-77
2023/10/30 02:41:22;;;;;;;17.60;2.13;;;;;;;;;;5103340;28;20520;-76
2023/10/30 02:43:52;;;;;;;18.00;1.70;;;;;;;;;;5097988;28;20400;-76
2023/10/30 02:46:19;;;;;;;19.17;1.70;;;;;;;;;;5085889;28;20494;-76
2023/10/30 02:48:45;;;;;;;20.90;1.90;;;;;;;;;;5099533;28;20515;-75
2023/10/30 02:51:12;;;;;;;17.38;2.20;;;;;;;;;;5098115;28;20406;-75
2023/10/30 02:53:39;;;;;;;19.52;1.63;;;;;;;;;;5105107;28;20402;-76
2023/10/30 02:56:06;;;;;;;19.33;2.08;;;;;;;;;;5105330;28;20435;-75
2023/10/30 02:58:33;;;;;;;20.70;2.30;;;;;;;;;;5101980;28;20430;-76
2023/10/30 03:01:02;;;;;;;22.92;2.30;;;;;;;;;;5098308;28;20397;-77
2023/10/30 03:03:29;;;;;;;20.00;2.10;;;;;;;;;;5105080;28;20417;-76
2023/10/30 03:05:56;;;;;;;18.67;2.80;;;;;;;;;;5089176;28;20830;-75
2023/10/30 03:08:25;;;;;;;16.80;1.60;;;;;;;;;;5094524;28;20496;-76
2023/10/30 03:10:51;;;;;;;17.90;1.60;;;;;;;;;;5101774;28;20760;-75
2023/10/30 03:13:18;;;;;;;16.80;2.60;;;;;;;;;;5097367;28;20451;-76
2023/10/30 03:15:45;;;;;;;22.08;1.85;;;;;;;;;;5097080;28;20991;-75
2023/10/30 03:18:13;;;;;;;15.33;1.50;;;;;;;;;;5092050;28;20408;-76
2023/10/30 03:20:40;;;;;;;18.63;1.85;;;;;;;;;;5098155;28;20404;-76
2023/10/30 03:23:07;;;;;;;17.90;1.70;;;;;;;;;;5101866;28;20408;-75
2023/10/30 03:25:34;;;;;;;16.08;1.70;;;;;;;;;;5081526;28;20433;-75
2023/10/30 03:28:01;;;;;;;18.33;1.63;;;;;;;;;;5096198;28;20491;-76
2023/10/30 03:30:27;;;;;;;16.77;1.80;;;;;;;;;;5098900;28;20444;-75
2023/10/30 03:32:54;;;;;;;16.67;1.70;;;;;;;;;;5096592;28;20484;-75
2023/10/30 03:35:22;;;;;;;19.10;1.90;;;;;;;;;;5082932;28;20832;-76
2023/10/30 03:37:49;;;;;;;16.60;2.10;;;;;;;;;;5105398;28;20509;-75
2023/10/30 03:40:15;;;;;;;15.80;1.50;;;;;;;;;;5100722;28;20445;-75
2023/10/30 03:42:42;;;;;;;17.17;1.83;;;;;;;;;;5094659;28;20410;-75
2023/10/30 03:45:09;;;;;;;17.27;1.70;;;;;;;;;;5096998;28;20509;-75
2023/10/30 03:47:35;;;;;;;18.75;1.65;;;;;;;;;;5097733;28;20414;-75
2023/10/30 03:50:02;;;;;;;16.70;1.70;;;;;;;;;;5104813;28;20400;-74
2023/10/30 03:52:30;;;;;;;23.15;1.80;;;;;;;;;;5101704;28;20512;-75
2023/10/30 03:55:03;;;;;;;20.52;1.90;;;;;;;;;;5104517;28;20412;-76
2023/10/30 03:57:30;;;;;;;21.50;1.90;;;;;;;;;;5094441;28;20426;-75
2023/10/30 03:59:56;;;;;;;17.17;1.60;;;;;;;;;;5081870;28;20500;-74
2023/10/30 04:02:23;;;;;;;16.35;1.80;;;;;;;;;;5097425;28;21205;-75
2023/10/30 04:04:50;;;;;;;16.30;2.00;;;;;;;;;;5109892;28;20409;-74
2023/10/30 04:07:16;;;;;;;18.60;1.87;;;;;;;;;;5101006;28;20869;-75
2023/10/30 04:09:44;;;;;;;16.85;2.00;;;;;;;;;;5098789;28;20406;-75
2023/10/30 04:12:11;;;;;;;20.07;2.00;;;;;;;;;;5105783;28;20417;-75
2023/10/30 04:14:38;;;;;;;16.92;1.90;;;;;;;;;;5106423;28;20455;-75
2023/10/30 04:17:05;;;;;;;17.33;1.90;;;;;;;;;;5101504;28;20449;-75
2023/10/30 04:19:31;;;;;;;14.95;1.55;;;;;;;;;;5095835;27;20494;-74
2023/10/30 04:21:58;;;;;;;18.55;2.63;;;;;;;;;;5110015;28;20411;-75
2023/10/30 04:24:24;;;;;;;18.38;2.30;;;;;;;;;;5084072;28;20770;-75
2023/10/30 04:26:53;;;;;;;18.25;1.80;;;;;;;;;;5102695;28;20961;-75
2023/10/30 04:29:19;;;;;;;17.52;1.60;;;;;;;;;;5102121;28;20400;-75
2023/10/30 04:31:46;;;;;;;20.20;2.28;;;;;;;;;;5106613;28;20469;-76
2023/10/30 04:34:12;;;;;;;17.85;2.05;;;;;;;;;;5104538;27;20412;-75
2023/10/30 04:36:39;;;;;;;18.88;1.90;;;;;;;;;;5100544;28;20786;-75
2023/10/30 04:39:08;;;;;;;17.23;1.88;;;;;;;;;;5108560;28;20511;-76
2023/10/30 04:41:35;;;;;;;19.23;1.80;;;;;;;;;;5104023;28;20505;-75
2023/10/30 04:44:03;;;;;;;17.80;1.90;;;;;;;;;;5099593;28;20434;-75
2023/10/30 04:46:30;;;;;;;15.98;1.77;;;;;;;;;;5094455;28;20416;-75
2023/10/30 04:48:57;;;;;;;15.15;1.40;;;;;;;;;;5101103;28;20430;-75
2023/10/30 04:51:25;;;;;;;15.27;1.80;;;;;;;;;;5100437;28;20487;-75
2023/10/30 04:53:54;;;;;;;17.85;2.40;;;;;;;;;;5091824;28;20766;-76
2023/10/30 04:56:20;;;;;;;16.60;1.50;;;;;;;;;;5102175;28;20405;-75
2023/10/30 04:58:47;;;;;;;16.98;2.13;;;;;;;;;;5104599;28;20489;-75
2023/10/30 05:01:15;;;;;;;16.33;1.50;;;;;;;;;;5099165;28;20398;-75
2023/10/30 05:03:41;;;;;;;18.77;2.20;;;;;;;;;;5105401;28;20903;-76
2023/10/30 05:06:08;;;;;;;17.80;2.20;;;;;;;;;;5108479;28;20405;-75
2023/10/30 05:08:35;;;;;;;16.70;1.55;;;;;;;;;;5100707;28;20404;-75
2023/10/30 05:11:02;;;;;;;15.70;1.70;;;;;;;;;;5104566;28;20463;-75
2023/10/30 05:13:28;;;;;;;16.13;1.50;;;;;;;;;;5108873;28;20515;-77
2023/10/30 05:15:58;;;;;;;15.40;1.60;;;;;;;;;;5105285;28;20978;-75
2023/10/30 05:18:28;;;;;;;20.67;1.80;;;;;;;;;;5105362;28;20447;-75
2023/10/30 05:20:55;;;;;;;17.48;2.10;;;;;;;;;;5109303;28;20603;-75
2023/10/30 05:23:21;;;;;;;18.70;2.20;;;;;;;;;;5095936;28;20400;-76
2023/10/30 05:25:48;;;;;;;17.50;2.00;;;;;;;;;;5102262;28;20402;-76
2023/10/30 05:28:14;;;;;;;17.90;1.90;;;;;;;;;;5099853;28;20882;-75
2023/10/30 05:30:41;;;;;;;17.30;2.10;;;;;;;;;;5099838;28;20428;-75
2023/10/30 05:33:08;;;;;;;18.40;2.10;;;;;;;;;;5098350;28;20905;-75
2023/10/30 05:35:36;;;;;;;15.65;1.70;;;;;;;;;;5099204;28;20411;-76
2023/10/30 05:38:05;;;;;;;18.00;1.70;;;;;;;;;;5097803;28;20449;-76
2023/10/30 05:40:31;;;;;;;19.58;1.90;;;;;;;;;;5103121;28;20424;-76
2023/10/30 05:42:58;;;;;;;17.15;1.73;;;;;;;;;;5100547;28;20488;-76
2023/10/30 05:45:25;;;;;;;18.05;1.70;;;;;;;;;;5098845;28;20511;-76
2023/10/30 05:47:52;;;;;;;16.92;1.67;;;;;;;;;;5091490;28;20403;-77
2023/10/30 05:50:20;;;;;;;21.70;2.55;;;;;;;;;;5103277;28;20729;-76
2023/10/30 05:52:48;;;;;;;18.52;2.00;;;;;;;;;;5107973;28;20404;-76
2023/10/30 05:55:14;;;;;;;19.27;1.90;;;;;;;;;;5095746;28;20416;-76
2023/10/30 05:57:44;;;;;;;17.05;1.75;;;;;;;;;;5102357;28;20868;-75
2023/10/30 06:00:12;;;;;;;17.67;1.92;;;;;;;;;;5097555;28;20406;-75
2023/10/30 06:02:39;;;;;;;16.48;1.92;;;;;;;;;;5090067;28;20763;-75
2023/10/30 06:05:08;;;;;;;19.50;1.70;;;;;;;;;;5090159;28;20418;-76
2023/10/30 06:07:37;;;;;;;17.10;1.90;;;;;;;;;;5098773;28;20438;-76
2023/10/30 06:10:06;;;;;;;18.08;2.53;;;;;;;;;;5099955;28;20542;-77
2023/10/30 06:12:32;;;;;;;18.23;1.85;;;;;;;;;;5090421;28;20489;-76
2023/10/30 06:14:59;;;;;;;19.15;1.90;;;;;;;;;;5100933;28;20733;-77
2023/10/30 06:17:26;;;;;;;16.60;2.50;;;;;;;;;;5091500;28;20402;-77
2023/10/30 06:19:52;;;;;;;19.33;1.70;;;;;;;;;;5085333;28;20479;-76
2023/10/30 06:22:19;;;;;;;17.05;1.88;;;;;;;;;;5099859;28;20400;-76
2023/10/30 06:24:45;;;;;;;17.20;1.90;;;;;;;;;;5100736;28;20406;-74
2023/10/30 06:27:13;;;;;;;18.40;2.85;;;;;;;;;;5099662;28;20496;-75
2023/10/30 06:29:40;;;;;;;16.90;2.10;;;;;;;;;;5102785;28;20757;-75
2023/10/30 06:32:07;;;;;;;17.45;2.28;;;;;;;;;;5098408;28;20516;-76
2023/10/30 06:34:34;;;;;;;20.80;2.30;;;;;;;;;;5103827;28;20426;-78
2023/10/30 06:37:00;;;;;;;16.05;2.03;;;;;;;;;;5101452;28;20406;-77
2023/10/30 06:39:27;;;;;;;19.70;2.20;;;;;;;;;;5100373;28;20415;-77
2023/10/30 06:41:56;;;;;;;21.48;2.63;;;;;;;;;;5102574;28;20400;-73
2023/10/30 06:44:24;;;;;;;19.45;2.10;;;;;;;;;;5100760;28;20409;-75
2023/10/30 06:46:51;;;;;;;19.35;2.13;;;;;;;;;;5096086;28;20388;-76
2023/10/30 06:49:22;;;;;;;20.15;2.70;;;;;;;;;;5097626;28;20956;-75
2023/10/30 06:51:48;;;;;;;17.75;2.30;;;;;;;;;;5099745;28;20404;-76
2023/10/30 06:54:15;;;;;;;19.10;2.17;;;;;;;;;;5099038;28;20411;-77
2023/10/30 06:56:42;;;;;;;16.92;2.13;;;;;;;;;;5097613;28;20402;-76
2023/10/30 06:59:14;;;;;;;18.93;2.97;;;;;;;;;;5100557;28;20448;-76
2023/10/30 07:01:43;;;;;;;17.20;2.30;;;;;;;;;;5098432;28;20455;-76
2023/10/30 07:04:10;;;;;;;17.88;2.00;;;;;;;;;;5089529;28;20963;-76
2023/10/30 07:06:37;;;;;;;20.40;2.50;;;;;;;;;;5102366;28;20412;-76
2023/10/30 07:09:06;;;;;;;19.70;1.98;;;;;;;;;;5097856;28;20405;-76
2023/10/30 07:11:33;;;;;;;17.38;2.15;;;;;;;;;;5101847;28;20902;-77
2023/10/30 07:14:03;;;;;;;23.17;2.50;;;;;;;;;;5099567;28;20417;-76
2023/10/30 07:16:30;;;;;;;17.75;1.90;;;;;;;;;;5102372;28;20497;-75
2023/10/30 07:18:58;;;;;;;15.85;2.25;;;;;;;;;;5098179;28;20426;-76
2023/10/30 07:21:25;;;;;;;17.17;2.13;;;;;;;;;;5096545;28;20873;-75
2023/10/30 07:23:52;;;;;;;17.25;2.35;;;;;;;;;;5100280;28;20881;-76
2023/10/30 07:26:19;;;;;;;22.17;2.83;;;;;;;;;;5096270;28;20876;-76
2023/10/30 07:28:45;;;;;;;19.23;2.40;;;;;;;;;;5106334;28;20535;-76
2023/10/30 07:31:12;;;;;;;19.30;2.50;;;;;;;;;;5100372;28;20406;-76
2023/10/30 07:33:39;;;;;;;17.60;2.30;;;;;;;;;;5097721;28;20884;-76
2023/10/30 07:36:07;;;;;;;19.20;2.77;;;;;;;;;;5097330;28;20527;-76
2023/10/30 07:38:35;;;;;;;16.60;2.60;;;;;;;;;;5093996;28;20426;-75
2023/10/30 07:41:02;;;;;;;19.70;2.40;;;;;;;;;;5099115;28;20893;-75
2023/10/30 07:43:29;;;;;;;17.38;2.40;;;;;;;;;;5098130;28;20720;-76
2023/10/30 07:45:56;;;;;;;19.90;2.80;;;;;;;;;;5090252;28;20406;-76
2023/10/30 07:48:26;;;;;;;17.20;2.40;;;;;;;;;;5104562;28;20400;-75
2023/10/30 07:50:53;;;;;;;16.80;2.60;;;;;;;;;;5119339;27;20404;-76
2023/10/30 07:53:21;;;;;;;20.80;2.60;;;;;;;;;;5100289;28;21074;-76
2023/10/30 07:55:50;;;;;;;17.75;3.20;;;;;;;;;;5103945;28;20424;-77
2023/10/30 07:58:17;;;;;;;16.23;2.43;;;;;;;;;;5103185;28;20507;-76
2023/10/30 08:00:44;;;;;;;18.77;2.90;;;;;;;;;;5104704;28;20404;-76
2023/10/30 08:03:24;;;;;;;17.80;2.20;;;;;;;;;;5103725;28;20403;-76
2023/10/30 08:05:51;;;;;;;19.83;2.65;;;;;;;;;;5100864;28;20782;-76
2023/10/30 08:08:17;;;;;;;17.80;2.53;;;;;;;;;;5101561;28;20397;-76
2023/10/30 08:10:46;;;;;;;18.25;2.40;;;;;;;;;;5087030;28;20408;-75
2023/10/30 08:13:12;;;;;;;16.88;2.55;;;;;;;;;;5084689;28;20745;-76
2023/10/30 08:15:39;;;;;;;18.23;2.40;;;;;;;;;;5103332;28;20446;-76
2023/10/30 08:18:06;;;;;;;18.83;2.80;;;;;;;;;;5089016;28;20537;-73
2023/10/30 08:20:32;;;;;;;19.02;2.70;;;;;;;;;;5104323;28;20515;-76
2023/10/30 08:22:59;;;;;;;18.48;3.15;;;;;;;;;;5104681;28;20408;-76
2023/10/30 08:25:27;;;;;;;16.48;2.28;;;;;;;;;;5102011;28;20870;-76
2023/10/30 08:27:57;;;;;;;17.50;2.38;;;;;;;;;;5104508;28;20516;-75
2023/10/30 08:30:25;;;;;;;19.07;2.30;;;;;;;;;;5097832;28;20402;-75
2023/10/30 08:32:51;;;;;;;20.83;2.60;;;;;;;;;;5101676;28;20398;-76
2023/10/30 08:35:18;;;;;;;17.85;2.40;;;;;;;;;;5108565;28;20495;-75
2023/10/30 08:37:47;;;;;;;19.05;2.60;;;;;;;;;;5118414;27;20414;-77
2023/10/30 08:40:14;;;;;;;18.55;2.45;;;;;;;;;;5098678;27;20413;-77
2023/10/30 08:42:41;;;;;;;18.80;2.40;;;;;;;;;;5102841;28;21227;-76
2023/10/30 08:45:09;;;;;;;16.30;2.15;;;;;;;;;;5100665;28;20452;-76
2023/10/30 08:47:36;;;;;;;19.27;2.30;;;;;;;;;;5104906;28;20972;-76
2023/10/30 08:50:03;;;;;;;15.52;2.00;;;;;;;;;;5102256;28;20421;-76
2023/10/30 08:52:29;;;;;;;17.60;2.60;;;;;;;;;;5099902;28;20440;-76
2023/10/30 08:54:56;;;;;;;17.67;2.30;;;;;;;;;;5101337;28;20904;-75
2023/10/30 08:57:23;;;;;;;18.77;2.20;;;;;;;;;;5102383;28;20407;-75
2023/10/30 08:59:50;;;;;;;17.17;2.95;;;;;;;;;;5108390;28;20416;-76
2023/10/30 09:02:18;;;;;;;17.63;2.10;;;;;;;;;;5100536;28;20463;-75
2023/10/30 09:04:45;;;;;;;17.20;2.10;;;;;;;;;;5100877;28;20927;-75
2023/10/30 09:07:12;;;;;;;15.93;2.77;;;;;;;;;;5100382;28;20453;-76
2023/10/30 09:09:39;;;;;;;16.80;2.90;;;;;;;;;;5098559;28;20402;-76
2023/10/30 09:12:06;;;;;;;17.90;2.30;;;;;;;;;;5100593;28;20402;-74
2023/10/30 09:14:33;;;;;;;15.90;2.20;;;;;;;;;;5101655;28;20453;-76
2023/10/30 09:16:59;;;;;;;16.83;1.92;;;;;;;;;;5102661;28;20415;-76
2023/10/30 09:19:27;;;;;;;14.93;1.80;;;;;;;;;;5100341;28;20427;-76
2023/10/30 09:21:54;;;;;;;16.80;2.40;;;;;;;;;;5098931;28;20400;-75
2023/10/30 09:24:22;;;;;;;17.10;1.80;;;;;;;;;;5100141;28;20750;-76
2023/10/30 09:26:49;;;;;;;16.20;1.63;;;;;;;;;;5099491;28;20397;-76
2023/10/30 09:29:16;;;;;;;15.48;1.45;;;;;;;;;;5083961;28;20511;-75
2023/10/30 09:31:44;;;;;;;16.10;1.60;;;;;;;;;;5102641;28;20494;-76
2023/10/30 09:34:13;;;;;;;16.52;1.90;;;;;;;;;;5099239;28;20748;-75
2023/10/30 09:36:41;;;;;;;15.25;1.60;;;;;;;;;;5099908;28;20906;-77
2023/10/30 09:39:09;;;;;;;15.60;1.60;;;;;;;;;;5107197;28;20452;-76
2023/10/30 09:41:37;;;;;;;15.50;1.90;;;;;;;;;;5099739;28;20512;-76
2023/10/30 09:44:06;;;;;;;15.20;1.50;;;;;;;;;;5099852;28;20808;-76
2023/10/30 09:46:32;;;;;;;18.00;1.70;;;;;;;;;;5100268;28;20410;-76
2023/10/30 09:48:59;;;;;;;15.38;1.50;;;;;;;;;;5099621;28;20404;-77
2023/10/30 09:51:26;;;;;;;14.60;1.52;;;;;;;;;;5101032;28;20440;-76
2023/10/30 09:53:54;;;;;;;16.67;1.80;;;;;;;;;;5100859;28;20412;-76
2023/10/30 09:56:22;;;;;;;18.60;1.80;;;;;;;;;;5098965;28;20404;-77
2023/10/30 09:58:49;;;;;;;15.85;1.77;;;;;;;;;;5106266;28;20406;-76
2023/10/30 10:01:17;;;;;;;14.75;1.80;;;;;;;;;;5101402;28;20416;-76
2023/10/30 10:03:44;;;;;;;17.70;1.80;;;;;;;;;;5107317;28;20443;-76
2023/10/30 10:06:11;;;;;;;14.80;1.50;;;;;;;;;;5097048;28;20402;-76
2023/10/30 10:08:38;;;;;;;15.23;1.85;;;;;;;;;;5097961;28;20794;-74
2023/10/30 10:11:06;;;;;;;17.23;2.50;;;;;;;;;;5100622;28;20477;-73
2023/10/30 10:13:33;;;;;;;15.30;1.50;;;;;;;;;;5097508;28;20406;-76
2023/10/30 10:16:01;;;;;;;14.75;1.50;;;;;;;;;;5101519;28;20481;-76
2023/10/30 10:18:28;;;;;;;16.23;1.70;;;;;;;;;;5099787;28;20404;-75
2023/10/30 10:20:56;;;;;;;16.40;1.80;;;;;;;;;;5099932;28;20549;-75
2023/10/30 10:23:24;;;;;;;19.08;2.05;;;;;;;;;;5100559;28;20989;-77
2023/10/30 10:25:57;;;;;;;17.38;1.70;;;;;;;;;;5101417;28;20406;-76
2023/10/30 10:28:25;;;;;;;21.23;1.98;;;;;;;;;;5101099;28;20402;-76
2023/10/30 10:30:53;;;;;;;14.73;1.60;;;;;;;;;;5093921;28;20480;-76
2023/10/30 10:33:21;;;;;;;15.10;1.73;;;;;;;;;;5102690;28;20791;-76
2023/10/30 10:35:51;;;;;;;19.00;1.70;;;;;;;;;;5099814;28;20835;-77
2023/10/30 10:38:18;;;;;;;16.60;2.10;;;;;;;;;;5100601;28;20507;-76
2023/10/30 10:40:47;;;;;;;14.63;1.67;;;;;;;;;;5099553;28;20836;-75
2023/10/30 10:43:14;;;;;;;14.85;1.58;;;;;;;;;;5096827;28;20437;-76
2023/10/30 10:45:44;;;;;;;15.30;1.67;;;;;;;;;;5101081;28;20403;-76
2023/10/30 10:48:11;;;;;;;14.70;1.50;;;;;;;;;;5098820;28;20835;-77
2023/10/30 10:50:41;;;;;;;15.30;1.53;;;;;;;;;;5098523;28;21259;-75
2023/10/30 10:53:07;;;;;;;14.70;1.40;;;;;;;;;;5096126;28;20414;-76
2023/10/30 10:55:37;;;;;;;14.88;1.40;;;;;;;;;;5103486;28;20412;-76
2023/10/30 10:58:08;;;;;;;14.80;1.50;;;;;;;;;;5100283;28;20947;-76
2023/10/30 11:00:36;;;;;;;15.30;1.50;;;;;;;;;;5105814;28;20523;-75
2023/10/30 11:03:06;;;;;;;14.40;1.20;;;;;;;;;;5090137;28;21293;-76
2023/10/30 11:05:33;;;;;;;17.08;1.60;;;;;;;;;;5098416;28;20408;-75
2023/10/30 11:08:05;;;;;;;15.90;1.60;;;;;;;;;;5098377;28;20402;-76
2023/10/30 11:10:33;;;;;;;14.45;1.30;;;;;;;;;;5099086;28;20441;-77
2023/10/30 11:13:05;;;;;;;15.30;1.40;;;;;;;;;;5099961;28;20421;-76
2023/10/30 11:15:34;;;;;;;14.85;1.30;;;;;;;;;;5097197;28;20496;-76
2023/10/30 11:18:15;;;;;;;14.30;1.30;;;;;;;;;;5098451;28;20409;-74
2023/10/30 11:20:42;;;;;;;15.23;1.43;;;;;;;;;;5096746;28;20529;-76
2023/10/30 11:23:09;;;;;;;14.60;1.30;;;;;;;;;;5106166;28;20462;-75
2023/10/30 11:25:43;;;;;;;14.30;1.00;;;;;;;;;;5099733;28;20399;-77
2023/10/30 11:28:10;;;;;;;14.35;1.20;;;;;;;;;;5086520;28;20498;-76
2023/10/30 11:30:40;;;;;;;15.40;1.10;;;;;;;;;;5084124;28;20398;-76
2023/10/30 11:33:16;;;;;;;14.70;1.20;;;;;;;;;;5086829;28;20406;-76
2023/10/30 11:35:45;;;;;;;16.40;1.20;;;;;;;;;;5099047;28;20390;-76
2023/10/30 11:38:15;;;;;;;14.77;1.10;;;;;;;;;;5101769;28;20451;-75
2023/10/30 11:40:42;;;;;;;14.70;1.00;;;;;;;;;;5101549;28;20515;-77
2023/10/30 11:43:09;;;;;;;15.90;1.10;;;;;;;;;;5092999;28;20424;-77
2023/10/30 11:45:38;;;;;;;14.13;1.10;;;;;;;;;;5104259;28;20433;-77
2023/10/30 11:48:08;;;;;;;14.80;1.20;;;;;;;;;;5099350;28;20432;-77
2023/10/30 11:50:36;;;;;;;14.10;1.00;;;;;;;;;;5098023;28;20498;-77
2023/10/30 11:53:08;;;;;;;14.10;1.20;;;;;;;;;;5089929;28;20477;-76
2023/10/30 11:55:35;;;;;;;15.70;1.07;;;;;;;;;;5081049;28;20419;-76
2023/10/30 11:58:02;;;;;;;14.23;1.00;;;;;;;;;;5104998;28;20396;-76
2023/10/30 12:00:33;;;;;;;14.50;1.02;;;;;;;;;;5097919;28;20973;-76
2023/10/30 12:03:00;;;;;;;14.40;1.00;;;;;;;;;;5101896;28;20428;-76
2023/10/30 12:05:27;;;;;;;14.13;1.10;;;;;;;;;;5096452;28;20421;-77
2023/10/30 12:07:53;;;;;;;14.40;1.10;;;;;;;;;;5100145;28;20891;-76
2023/10/30 12:10:22;;;;;;;14.10;1.10;;;;;;;;;;5095932;28;20402;-76
2023/10/30 12:12:49;;;;;;;14.32;1.13;;;;;;;;;;5105150;28;21221;-75
2023/10/30 12:15:16;;;;;;;15.50;1.20;;;;;;;;;;5096528;28;20416;-77
2023/10/30 12:17:44;;;;;;;16.00;1.10;;;;;;;;;;5094862;28;20410;-76
2023/10/30 12:20:11;;;;;;;15.30;1.00;;;;;;;;;;5093956;28;20463;-75
2023/10/30 12:22:41;;;;;;;15.75;1.00;;;;;;;;;;5076329;28;20508;-76
2023/10/30 12:25:13;;;;;;;14.57;1.00;;;;;;;;;;5103423;28;20406;-76
2023/10/30 12:27:41;;;;;;;14.00;0.93;;;;;;;;;;5101325;28;20469;-76
2023/10/30 12:30:11;;;;;;;14.02;1.20;;;;;;;;;;5110013;28;20895;-76
2023/10/30 12:32:38;;;;;;;13.90;0.98;;;;;;;;;;5108536;28;20418;-75
2023/10/30 12:35:08;;;;;;;14.30;1.10;;;;;;;;;;5101773;28;20406;-76
2023/10/30 12:37:37;;;;;;;15.27;1.10;;;;;;;;;;5092818;28;20909;-76
2023/10/30 12:40:04;;;;;;;14.30;1.25;;;;;;;;;;5101454;28;20880;-76
2023/10/30 12:42:33;;;;;;;14.33;0.93;;;;;;;;;;5103243;28;20413;-75
2023/10/30 12:45:03;;;;;;;14.07;1.10;;;;;;;;;;5105257;28;20424;-76
2023/10/30 12:47:31;;;;;;;15.00;1.02;;;;;;;;;;5103025;28;20404;-76
2023/10/30 12:49:57;;;;;;;14.68;1.10;;;;;;;;;;5103687;28;20455;-76
2023/10/30 12:52:24;;;;;;;13.80;0.90;;;;;;;;;;5099176;28;20471;-77
2023/10/30 12:54:51;;;;;;;15.93;1.10;;;;;;;;;;5088732;28;20417;-76
2023/10/30 12:57:17;;;;;;;14.20;1.00;;;;;;;;;;5098088;28;20412;-75
2023/10/30 12:59:44;;;;;;;14.00;1.05;;;;;;;;;;5098927;28;20427;-76
2023/10/30 13:02:12;;;;;;;14.20;1.30;;;;;;;;;;5100115;28;20885;-75
2023/10/30 13:04:39;;;;;;;14.20;1.10;;;;;;;;;;5100301;28;20463;-76
2023/10/30 13:07:06;;;;;;;15.20;1.10;;;;;;;;;;5101718;28;20489;-76
2023/10/30 13:09:33;;;;;;;14.15;1.10;;;;;;;;;;5103256;28;20402;-76
2023/10/30 13:12:03;;;;;;;14.00;1.02;;;;;;;;;;5101514;28;20396;-76
2023/10/30 13:14:31;;;;;;;14.20;1.00;;;;;;;;;;5098080;28;20398;-76
2023/10/30 13:16:58;;;;;;;15.30;1.02;;;;;;;;;;5107968;28;20405;-75
2023/10/30 13:19:26;;;;;;;14.83;1.10;;;;;;;;;;5092520;28;20470;-76
2023/10/30 13:21:53;;;;;;;14.50;1.10;;;;;;;;;;5091301;28;20515;-75
2023/10/30 13:24:20;;;;;;;15.10;1.20;;;;;;;;;;5099633;28;20400;-75
2023/10/30 13:26:47;;;;;;;14.60;1.13;;;;;;;;;;5109113;28;20408;-76
2023/10/30 13:29:14;;;;;;;13.88;1.05;;;;;;;;;;5090105;28;20478;-76
2023/10/30 13:31:40;;;;;;;14.48;1.10;;;;;;;;;;5099940;28;20410;-75
2023/10/30 13:34:07;;;;;;;13.80;1.10;;;;;;;;;;5100814;28;20406;-75
2023/10/30 13:36:35;;;;;;;13.90;1.00;;;;;;;;;;5098603;28;20467;-76
2023/10/30 13:39:02;;;;;;;15.50;1.10;;;;;;;;;;5099839;28;20414;-76
2023/10/30 13:41:29;;;;;;;15.20;1.80;;;;;;;;;;5109604;28;20430;-76
2023/10/30 13:43:56;;;;;;;14.30;1.20;;;;;;;;;;5099664;28;20469;-75
2023/10/30 13:46:22;;;;;;;14.30;1.25;;;;;;;;;;5101351;28;20830;-77
2023/10/30 13:48:49;;;;;;;14.70;1.20;;;;;;;;;;5097189;28;20476;-75
2023/10/30 13:51:16;;;;;;;14.13;1.13;;;;;;;;;;5100069;28;20463;-77
2023/10/30 13:53:44;;;;;;;16.53;1.10;;;;;;;;;;5101454;28;20494;-76
2023/10/30 13:56:11;;;;;;;14.10;1.20;;;;;;;;;;5085661;28;20501;-75
2023/10/30 13:58:38;;;;;;;13.90;1.00;;;;;;;;;;5097384;28;20410;-76
2023/10/30 14:01:05;;;;;;;15.57;1.30;;;;;;;;;;5101110;28;20501;-75
2023/10/30 14:03:31;;;;;;;14.20;1.10;;;;;;;;;;5099729;28;20406;-76
2023/10/30 14:05:58;;;;;;;15.10;1.10;;;;;;;;;;5099167;28;20400;-75
2023/10/30 14:08:25;;;;;;;13.80;1.00;;;;;;;;;;5104824;28;20398;-75
2023/10/30 14:10:53;;;;;;;16.13;1.40;;;;;;;;;;5083311;28;20413;-76
2023/10/30 14:13:20;;;;;;;15.35;1.27;;;;;;;;;;5099749;28;20839;-75
2023/10/30 14:15:46;;;;;;;14.50;1.00;;;;;;;;;;5091071;28;20912;-75
2023/10/30 14:18:13;;;;;;;14.10;1.10;;;;;;;;;;5107735;28;20934;-75
2023/10/30 14:20:39;;;;;;;16.38;1.30;;;;;;;;;;5099483;28;20971;-74
2023/10/30 14:23:06;;;;;;;13.90;1.10;;;;;;;;;;5085449;28;20409;-76
2023/10/30 14:25:32;;;;;;;14.40;1.20;;;;;;;;;;5103587;28;20453;-75
2023/10/30 14:28:00;;;;;;;14.40;1.20;;;;;;;;;;5107382;28;20507;-77
2023/10/30 14:30:28;;;;;;;13.95;1.10;;;;;;;;;;5100427;28;20401;-76
2023/10/30 14:32:54;;;;;;;16.15;1.20;;;;;;;;;;5100861;28;20409;-75